sensor_id;sensor_type;location;lat;lon;timestamp;P1;durP1;ratioP1;P2;durP2;ratioP2
36691;SDS011;22678;52.052;4.242;2023-04-06T00:00:07;30.07;;;16.10;;
36691;SDS011;22678;52.052;4.242;2023-04-06T00:02:34;31.90;;;17.83;;
36691;SDS011;22678;52.052;4.242;2023-04-06T00:04:59;30.57;;;16.03;;
36691;SDS011;22678;52.052;4.242;2023-04-06T00:07:25;25.60;;;14.43;;
36691;SDS011;22678;52.052;4.242;2023-04-06T00:09:51;26.13;;;14.07;;
36691;SDS011;22678;52.052;4.242;2023-04-06T00:12:16;30.00;;;17.63;;
36691;SDS011;22678;52.052;4.242;2023-04-06T00:14:42;28.50;;;14.47;;
36691;SDS011;22678;52.052;4.242;2023-04-06T00:17:07;28.43;;;14.13;;
36691;SDS011;22678;52.052;4.242;2023-04-06T00:19:32;29.63;;;13.90;;
36691;SDS011;22678;52.052;4.242;2023-04-06T00:21:58;25.57;;;13.17;;
36691;SDS011;22678;52.052;4.242;2023-04-06T00:24:23;24.47;;;14.20;;
36691;SDS011;22678;52.052;4.242;2023-04-06T00:26:48;28.87;;;14.93;;
36691;SDS011;22678;52.052;4.242;2023-04-06T00:29:14;26.93;;;12.73;;
36691;SDS011;22678;52.052;4.242;2023-04-06T00:31:40;23.17;;;12.63;;
36691;SDS011;22678;52.052;4.242;2023-04-06T00:34:05;29.43;;;14.13;;
36691;SDS011;22678;52.052;4.242;2023-04-06T00:36:31;24.70;;;13.23;;
36691;SDS011;22678;52.052;4.242;2023-04-06T00:38:56;23.43;;;12.80;;
36691;SDS011;22678;52.052;4.242;2023-04-06T00:41:21;21.47;;;11.50;;
36691;SDS011;22678;52.052;4.242;2023-04-06T00:43:47;29.60;;;14.33;;
36691;SDS011;22678;52.052;4.242;2023-04-06T00:46:12;25.03;;;11.87;;
36691;SDS011;22678;52.052;4.242;2023-04-06T00:48:38;23.87;;;10.27;;
36691;SDS011;22678;52.052;4.242;2023-04-06T00:51:04;20.67;;;11.33;;
36691;SDS011;22678;52.052;4.242;2023-04-06T00:53:29;31.83;;;11.97;;
36691;SDS011;22678;52.052;4.242;2023-04-06T00:55:55;22.60;;;11.23;;
36691;SDS011;22678;52.052;4.242;2023-04-06T00:58:20;23.63;;;11.40;;
36691;SDS011;22678;52.052;4.242;2023-04-06T01:00:47;22.17;;;10.37;;
36691;SDS011;22678;52.052;4.242;2023-04-06T01:03:12;18.53;;;10.87;;
36691;SDS011;22678;52.052;4.242;2023-04-06T01:05:38;18.90;;;10.07;;
36691;SDS011;22678;52.052;4.242;2023-04-06T01:08:05;21.80;;;12.57;;
36691;SDS011;22678;52.052;4.242;2023-04-06T01:10:31;20.27;;;9.43;;
36691;SDS011;22678;52.052;4.242;2023-04-06T01:12:57;18.63;;;10.80;;
36691;SDS011;22678;52.052;4.242;2023-04-06T01:15:22;21.97;;;10.90;;
36691;SDS011;22678;52.052;4.242;2023-04-06T01:17:49;22.47;;;9.87;;
36691;SDS011;22678;52.052;4.242;2023-04-06T01:20:15;19.70;;;10.30;;
36691;SDS011;22678;52.052;4.242;2023-04-06T01:22:40;22.87;;;12.93;;
36691;SDS011;22678;52.052;4.242;2023-04-06T01:25:06;21.17;;;12.83;;
36691;SDS011;22678;52.052;4.242;2023-04-06T01:27:32;17.90;;;9.17;;
36691;SDS011;22678;52.052;4.242;2023-04-06T01:29:57;19.53;;;10.93;;
36691;SDS011;22678;52.052;4.242;2023-04-06T01:32:22;18.87;;;9.30;;
36691;SDS011;22678;52.052;4.242;2023-04-06T01:34:47;18.30;;;9.17;;
36691;SDS011;22678;52.052;4.242;2023-04-06T01:37:13;18.73;;;10.00;;
36691;SDS011;22678;52.052;4.242;2023-04-06T01:39:38;18.43;;;10.50;;
36691;SDS011;22678;52.052;4.242;2023-04-06T01:42:03;14.10;;;9.30;;
36691;SDS011;22678;52.052;4.242;2023-04-06T01:44:29;15.60;;;9.10;;
36691;SDS011;22678;52.052;4.242;2023-04-06T01:46:57;22.20;;;9.23;;
36691;SDS011;22678;52.052;4.242;2023-04-06T01:49:22;19.57;;;11.13;;
36691;SDS011;22678;52.052;4.242;2023-04-06T01:51:48;17.50;;;9.63;;
36691;SDS011;22678;52.052;4.242;2023-04-06T01:54:13;15.30;;;9.87;;
36691;SDS011;22678;52.052;4.242;2023-04-06T01:56:38;19.50;;;9.63;;
36691;SDS011;22678;52.052;4.242;2023-04-06T01:59:03;20.00;;;8.73;;
36691;SDS011;22678;52.052;4.242;2023-04-06T02:01:29;20.33;;;10.90;;
36691;SDS011;22678;52.052;4.242;2023-04-06T02:03:54;17.53;;;11.47;;
36691;SDS011;22678;52.052;4.242;2023-04-06T02:06:20;16.40;;;9.13;;
36691;SDS011;22678;52.052;4.242;2023-04-06T02:08:45;18.20;;;10.10;;
36691;SDS011;22678;52.052;4.242;2023-04-06T02:11:11;17.70;;;9.77;;
36691;SDS011;22678;52.052;4.242;2023-04-06T02:13:36;17.57;;;9.63;;
36691;SDS011;22678;52.052;4.242;2023-04-06T02:16:01;20.13;;;10.90;;
36691;SDS011;22678;52.052;4.242;2023-04-06T02:18:27;19.00;;;10.63;;
36691;SDS011;22678;52.052;4.242;2023-04-06T02:20:54;16.67;;;9.37;;
36691;SDS011;22678;52.052;4.242;2023-04-06T02:23:19;19.97;;;11.77;;
36691;SDS011;22678;52.052;4.242;2023-04-06T02:25:45;20.40;;;10.70;;
36691;SDS011;22678;52.052;4.242;2023-04-06T02:28:10;21.57;;;10.63;;
36691;SDS011;22678;52.052;4.242;2023-04-06T02:30:35;22.57;;;9.67;;
36691;SDS011;22678;52.052;4.242;2023-04-06T02:33:01;20.20;;;10.17;;
36691;SDS011;22678;52.052;4.242;2023-04-06T02:35:28;24.80;;;11.13;;
36691;SDS011;22678;52.052;4.242;2023-04-06T02:37:54;21.63;;;9.57;;
36691;SDS011;22678;52.052;4.242;2023-04-06T02:40:19;19.97;;;11.27;;
36691;SDS011;22678;52.052;4.242;2023-04-06T02:42:44;16.37;;;10.30;;
36691;SDS011;22678;52.052;4.242;2023-04-06T02:45:10;20.17;;;12.07;;
36691;SDS011;22678;52.052;4.242;2023-04-06T02:47:35;20.50;;;10.10;;
36691;SDS011;22678;52.052;4.242;2023-04-06T02:50:00;21.00;;;10.60;;
36691;SDS011;22678;52.052;4.242;2023-04-06T02:52:26;21.93;;;10.60;;
36691;SDS011;22678;52.052;4.242;2023-04-06T02:54:52;22.37;;;10.40;;
36691;SDS011;22678;52.052;4.242;2023-04-06T02:57:17;21.53;;;11.47;;
36691;SDS011;22678;52.052;4.242;2023-04-06T02:59:42;18.03;;;10.27;;
36691;SDS011;22678;52.052;4.242;2023-04-06T03:02:08;21.20;;;10.77;;
36691;SDS011;22678;52.052;4.242;2023-04-06T03:04:33;19.57;;;11.27;;
36691;SDS011;22678;52.052;4.242;2023-04-06T03:06:58;22.53;;;11.97;;
36691;SDS011;22678;52.052;4.242;2023-04-06T03:09:23;21.60;;;10.47;;
36691;SDS011;22678;52.052;4.242;2023-04-06T03:11:49;24.80;;;11.37;;
36691;SDS011;22678;52.052;4.242;2023-04-06T03:14:14;22.57;;;12.00;;
36691;SDS011;22678;52.052;4.242;2023-04-06T03:16:39;25.27;;;11.63;;
36691;SDS011;22678;52.052;4.242;2023-04-06T03:19:05;21.57;;;12.07;;
36691;SDS011;22678;52.052;4.242;2023-04-06T03:21:30;20.43;;;11.10;;
36691;SDS011;22678;52.052;4.242;2023-04-06T03:23:55;21.27;;;11.73;;
36691;SDS011;22678;52.052;4.242;2023-04-06T03:26:20;19.30;;;12.50;;
36691;SDS011;22678;52.052;4.242;2023-04-06T03:28:47;21.37;;;11.73;;
36691;SDS011;22678;52.052;4.242;2023-04-06T03:31:12;24.87;;;11.00;;
36691;SDS011;22678;52.052;4.242;2023-04-06T03:33:37;22.37;;;11.27;;
36691;SDS011;22678;52.052;4.242;2023-04-06T03:36:03;22.53;;;11.23;;
36691;SDS011;22678;52.052;4.242;2023-04-06T03:38:28;19.87;;;10.53;;
36691;SDS011;22678;52.052;4.242;2023-04-06T03:40:54;20.27;;;10.13;;
36691;SDS011;22678;52.052;4.242;2023-04-06T03:43:19;21.33;;;11.63;;
36691;SDS011;22678;52.052;4.242;2023-04-06T03:45:45;22.30;;;13.47;;
36691;SDS011;22678;52.052;4.242;2023-04-06T03:48:10;26.90;;;12.80;;
36691;SDS011;22678;52.052;4.242;2023-04-06T03:50:35;23.13;;;12.07;;
36691;SDS011;22678;52.052;4.242;2023-04-06T03:53:01;23.47;;;13.17;;
36691;SDS011;22678;52.052;4.242;2023-04-06T03:55:29;20.37;;;12.70;;
36691;SDS011;22678;52.052;4.242;2023-04-06T03:57:55;23.97;;;11.17;;
36691;SDS011;22678;52.052;4.242;2023-04-06T04:00:20;23.40;;;12.20;;
36691;SDS011;22678;52.052;4.242;2023-04-06T04:02:45;27.37;;;12.63;;
36691;SDS011;22678;52.052;4.242;2023-04-06T04:05:11;30.27;;;10.43;;
36691;SDS011;22678;52.052;4.242;2023-04-06T04:07:36;26.87;;;11.97;;
36691;SDS011;22678;52.052;4.242;2023-04-06T04:10:01;20.87;;;12.43;;
36691;SDS011;22678;52.052;4.242;2023-04-06T04:12:27;26.60;;;12.23;;
36691;SDS011;22678;52.052;4.242;2023-04-06T04:14:52;21.13;;;12.40;;
36691;SDS011;22678;52.052;4.242;2023-04-06T04:17:17;20.30;;;10.93;;
36691;SDS011;22678;52.052;4.242;2023-04-06T04:19:42;27.20;;;13.63;;
36691;SDS011;22678;52.052;4.242;2023-04-06T04:22:08;27.07;;;13.73;;
36691;SDS011;22678;52.052;4.242;2023-04-06T04:24:33;21.63;;;11.03;;
36691;SDS011;22678;52.052;4.242;2023-04-06T04:26:59;24.77;;;12.13;;
36691;SDS011;22678;52.052;4.242;2023-04-06T04:29:25;25.70;;;13.13;;
36691;SDS011;22678;52.052;4.242;2023-04-06T04:31:51;24.80;;;12.60;;
36691;SDS011;22678;52.052;4.242;2023-04-06T04:34:17;30.53;;;13.00;;
36691;SDS011;22678;52.052;4.242;2023-04-06T04:36:45;23.33;;;12.67;;
36691;SDS011;22678;52.052;4.242;2023-04-06T04:39:10;24.63;;;13.10;;
36691;SDS011;22678;52.052;4.242;2023-04-06T04:41:36;24.23;;;12.87;;
36691;SDS011;22678;52.052;4.242;2023-04-06T04:44:01;23.53;;;12.80;;
36691;SDS011;22678;52.052;4.242;2023-04-06T04:46:27;25.33;;;11.90;;
36691;SDS011;22678;52.052;4.242;2023-04-06T04:48:52;28.23;;;14.60;;
36691;SDS011;22678;52.052;4.242;2023-04-06T04:51:17;23.23;;;14.17;;
36691;SDS011;22678;52.052;4.242;2023-04-06T04:53:44;22.97;;;12.83;;
36691;SDS011;22678;52.052;4.242;2023-04-06T04:56:10;20.77;;;13.10;;
36691;SDS011;22678;52.052;4.242;2023-04-06T04:58:35;27.27;;;13.73;;
36691;SDS011;22678;52.052;4.242;2023-04-06T05:01:00;24.93;;;15.03;;
36691;SDS011;22678;52.052;4.242;2023-04-06T05:03:26;35.43;;;20.47;;
36691;SDS011;22678;52.052;4.242;2023-04-06T05:05:51;32.53;;;18.10;;
36691;SDS011;22678;52.052;4.242;2023-04-06T05:08:17;33.90;;;19.00;;
36691;SDS011;22678;52.052;4.242;2023-04-06T05:10:43;32.97;;;17.30;;
36691;SDS011;22678;52.052;4.242;2023-04-06T05:13:09;32.63;;;19.83;;
36691;SDS011;22678;52.052;4.242;2023-04-06T05:15:35;40.20;;;20.50;;
36691;SDS011;22678;52.052;4.242;2023-04-06T05:18:02;31.00;;;18.77;;
36691;SDS011;22678;52.052;4.242;2023-04-06T05:20:28;39.83;;;20.17;;
36691;SDS011;22678;52.052;4.242;2023-04-06T05:22:53;41.93;;;23.93;;
36691;SDS011;22678;52.052;4.242;2023-04-06T05:25:19;40.23;;;20.50;;
36691;SDS011;22678;52.052;4.242;2023-04-06T05:27:44;41.03;;;22.43;;
36691;SDS011;22678;52.052;4.242;2023-04-06T05:30:10;38.13;;;20.67;;
36691;SDS011;22678;52.052;4.242;2023-04-06T05:32:36;40.23;;;21.97;;
36691;SDS011;22678;52.052;4.242;2023-04-06T05:35:01;48.27;;;27.50;;
36691;SDS011;22678;52.052;4.242;2023-04-06T05:37:27;50.47;;;25.77;;
36691;SDS011;22678;52.052;4.242;2023-04-06T05:39:52;50.57;;;25.10;;
36691;SDS011;22678;52.052;4.242;2023-04-06T05:42:17;41.17;;;24.77;;
36691;SDS011;22678;52.052;4.242;2023-04-06T05:44:42;48.57;;;25.60;;
36691;SDS011;22678;52.052;4.242;2023-04-06T05:47:08;47.83;;;25.13;;
36691;SDS011;22678;52.052;4.242;2023-04-06T05:49:33;36.67;;;21.90;;
36691;SDS011;22678;52.052;4.242;2023-04-06T05:51:59;40.67;;;25.23;;
36691;SDS011;22678;52.052;4.242;2023-04-06T05:54:25;42.67;;;23.67;;
36691;SDS011;22678;52.052;4.242;2023-04-06T05:56:50;41.17;;;24.33;;
36691;SDS011;22678;52.052;4.242;2023-04-06T05:59:15;46.53;;;24.20;;
36691;SDS011;22678;52.052;4.242;2023-04-06T06:01:41;56.67;;;26.30;;
36691;SDS011;22678;52.052;4.242;2023-04-06T06:04:06;49.50;;;24.53;;
36691;SDS011;22678;52.052;4.242;2023-04-06T06:06:31;45.80;;;24.90;;
36691;SDS011;22678;52.052;4.242;2023-04-06T06:08:57;53.20;;;26.20;;
36691;SDS011;22678;52.052;4.242;2023-04-06T06:11:26;49.73;;;28.23;;
36691;SDS011;22678;52.052;4.242;2023-04-06T06:13:51;52.17;;;29.20;;
36691;SDS011;22678;52.052;4.242;2023-04-06T06:16:17;50.57;;;27.43;;
36691;SDS011;22678;52.052;4.242;2023-04-06T06:18:43;48.57;;;27.80;;
36691;SDS011;22678;52.052;4.242;2023-04-06T06:21:09;50.90;;;28.00;;
36691;SDS011;22678;52.052;4.242;2023-04-06T06:23:36;53.93;;;29.10;;
36691;SDS011;22678;52.052;4.242;2023-04-06T06:26:02;52.30;;;28.10;;
36691;SDS011;22678;52.052;4.242;2023-04-06T06:28:27;52.03;;;29.37;;
36691;SDS011;22678;52.052;4.242;2023-04-06T06:30:52;59.97;;;30.33;;
36691;SDS011;22678;52.052;4.242;2023-04-06T06:33:18;50.43;;;25.90;;
36691;SDS011;22678;52.052;4.242;2023-04-06T06:35:43;54.87;;;30.10;;
36691;SDS011;22678;52.052;4.242;2023-04-06T06:38:09;51.17;;;28.00;;
36691;SDS011;22678;52.052;4.242;2023-04-06T06:40:34;48.13;;;28.10;;
36691;SDS011;22678;52.052;4.242;2023-04-06T06:42:59;46.27;;;26.43;;
36691;SDS011;22678;52.052;4.242;2023-04-06T06:45:25;50.37;;;28.07;;
36691;SDS011;22678;52.052;4.242;2023-04-06T06:47:50;42.90;;;26.33;;
36691;SDS011;22678;52.052;4.242;2023-04-06T06:50:16;48.97;;;27.90;;
36691;SDS011;22678;52.052;4.242;2023-04-06T06:52:41;43.20;;;27.40;;
36691;SDS011;22678;52.052;4.242;2023-04-06T06:55:07;49.87;;;27.23;;
36691;SDS011;22678;52.052;4.242;2023-04-06T06:57:33;42.87;;;24.93;;
36691;SDS011;22678;52.052;4.242;2023-04-06T06:59:59;40.50;;;23.67;;
36691;SDS011;22678;52.052;4.242;2023-04-06T07:02:25;45.83;;;26.40;;
36691;SDS011;22678;52.052;4.242;2023-04-06T07:04:50;38.87;;;24.40;;
36691;SDS011;22678;52.052;4.242;2023-04-06T07:07:15;37.70;;;22.00;;
36691;SDS011;22678;52.052;4.242;2023-04-06T07:09:41;45.47;;;22.67;;
36691;SDS011;22678;52.052;4.242;2023-04-06T07:12:06;39.73;;;19.17;;
36691;SDS011;22678;52.052;4.242;2023-04-06T07:14:32;27.30;;;13.67;;
36691;SDS011;22678;52.052;4.242;2023-04-06T07:16:57;29.70;;;15.97;;
36691;SDS011;22678;52.052;4.242;2023-04-06T07:19:22;26.90;;;16.73;;
36691;SDS011;22678;52.052;4.242;2023-04-06T07:21:47;20.77;;;12.57;;
36691;SDS011;22678;52.052;4.242;2023-04-06T07:24:14;20.30;;;12.90;;
36691;SDS011;22678;52.052;4.242;2023-04-06T07:26:40;22.93;;;11.93;;
36691;SDS011;22678;52.052;4.242;2023-04-06T07:29:07;21.57;;;11.20;;
36691;SDS011;22678;52.052;4.242;2023-04-06T07:31:32;20.23;;;11.03;;
36691;SDS011;22678;52.052;4.242;2023-04-06T07:33:58;22.60;;;11.03;;
36691;SDS011;22678;52.052;4.242;2023-04-06T07:36:23;20.03;;;9.60;;
36691;SDS011;22678;52.052;4.242;2023-04-06T07:38:49;21.40;;;10.00;;
36691;SDS011;22678;52.052;4.242;2023-04-06T07:41:14;23.83;;;12.93;;
36691;SDS011;22678;52.052;4.242;2023-04-06T07:43:39;25.50;;;10.93;;
36691;SDS011;22678;52.052;4.242;2023-04-06T07:46:05;22.30;;;11.33;;
36691;SDS011;22678;52.052;4.242;2023-04-06T07:48:31;20.23;;;12.77;;
36691;SDS011;22678;52.052;4.242;2023-04-06T07:51:03;20.83;;;12.10;;
36691;SDS011;22678;52.052;4.242;2023-04-06T07:53:29;24.93;;;13.17;;
36691;SDS011;22678;52.052;4.242;2023-04-06T07:55:55;17.33;;;11.10;;
36691;SDS011;22678;52.052;4.242;2023-04-06T07:58:21;20.20;;;9.63;;
36691;SDS011;22678;52.052;4.242;2023-04-06T08:00:47;18.90;;;10.10;;
36691;SDS011;22678;52.052;4.242;2023-04-06T08:03:12;17.40;;;9.03;;
36691;SDS011;22678;52.052;4.242;2023-04-06T08:05:37;19.93;;;11.17;;
36691;SDS011;22678;52.052;4.242;2023-04-06T08:08:03;20.97;;;12.20;;
36691;SDS011;22678;52.052;4.242;2023-04-06T08:10:28;20.03;;;11.50;;
36691;SDS011;22678;52.052;4.242;2023-04-06T08:12:53;13.60;;;8.70;;
36691;SDS011;22678;52.052;4.242;2023-04-06T08:15:19;21.23;;;10.80;;
36691;SDS011;22678;52.052;4.242;2023-04-06T08:17:44;21.37;;;9.27;;
36691;SDS011;22678;52.052;4.242;2023-04-06T08:20:10;13.53;;;8.13;;
36691;SDS011;22678;52.052;4.242;2023-04-06T08:22:35;14.40;;;7.10;;
36691;SDS011;22678;52.052;4.242;2023-04-06T08:25:01;15.47;;;7.83;;
36691;SDS011;22678;52.052;4.242;2023-04-06T08:27:26;15.03;;;5.83;;
36691;SDS011;22678;52.052;4.242;2023-04-06T08:29:51;15.63;;;5.67;;
36691;SDS011;22678;52.052;4.242;2023-04-06T08:32:17;17.90;;;6.60;;
36691;SDS011;22678;52.052;4.242;2023-04-06T08:34:42;7.43;;;3.80;;
36691;SDS011;22678;52.052;4.242;2023-04-06T08:37:07;20.90;;;5.53;;
36691;SDS011;22678;52.052;4.242;2023-04-06T08:39:33;13.97;;;6.03;;
36691;SDS011;22678;52.052;4.242;2023-04-06T08:41:58;13.83;;;5.60;;
36691;SDS011;22678;52.052;4.242;2023-04-06T08:44:25;10.53;;;4.97;;
36691;SDS011;22678;52.052;4.242;2023-04-06T08:46:51;12.80;;;4.53;;
36691;SDS011;22678;52.052;4.242;2023-04-06T08:49:17;8.60;;;2.50;;
36691;SDS011;22678;52.052;4.242;2023-04-06T08:51:44;8.20;;;3.60;;
36691;SDS011;22678;52.052;4.242;2023-04-06T08:54:09;9.03;;;3.57;;
36691;SDS011;22678;52.052;4.242;2023-04-06T08:56:37;7.37;;;2.47;;
36691;SDS011;22678;52.052;4.242;2023-04-06T08:59:03;8.67;;;3.13;;
36691;SDS011;22678;52.052;4.242;2023-04-06T09:01:29;7.57;;;2.40;;
36691;SDS011;22678;52.052;4.242;2023-04-06T09:03:59;10.73;;;2.97;;
36691;SDS011;22678;52.052;4.242;2023-04-06T09:06:25;7.70;;;2.97;;
36691;SDS011;22678;52.052;4.242;2023-04-06T09:08:52;9.03;;;3.77;;
36691;SDS011;22678;52.052;4.242;2023-04-06T09:11:17;7.20;;;3.70;;
36691;SDS011;22678;52.052;4.242;2023-04-06T09:16:19;14.73;;;3.87;;
36691;SDS011;22678;52.052;4.242;2023-04-06T09:18:44;7.77;;;4.27;;
36691;SDS011;22678;52.052;4.242;2023-04-06T09:21:10;12.40;;;6.07;;
36691;SDS011;22678;52.052;4.242;2023-04-06T09:23:36;10.73;;;4.90;;
36691;SDS011;22678;52.052;4.242;2023-04-06T09:26:12;13.30;;;5.57;;
36691;SDS011;22678;52.052;4.242;2023-04-06T09:31:15;8.33;;;3.73;;
36691;SDS011;22678;52.052;4.242;2023-04-06T09:33:43;13.60;;;6.27;;
36691;SDS011;22678;52.052;4.242;2023-04-06T09:36:10;10.27;;;5.23;;
36691;SDS011;22678;52.052;4.242;2023-04-06T09:38:36;12.00;;;5.50;;
36691;SDS011;22678;52.052;4.242;2023-04-06T09:41:03;8.90;;;4.90;;
36691;SDS011;22678;52.052;4.242;2023-04-06T09:43:29;17.27;;;6.70;;
36691;SDS011;22678;52.052;4.242;2023-04-06T09:45:57;15.63;;;6.80;;
36691;SDS011;22678;52.052;4.242;2023-04-06T09:48:25;16.33;;;6.53;;
36691;SDS011;22678;52.052;4.242;2023-04-06T09:50:54;18.33;;;6.27;;
36691;SDS011;22678;52.052;4.242;2023-04-06T09:53:24;17.97;;;6.27;;
36691;SDS011;22678;52.052;4.242;2023-04-06T09:55:55;9.97;;;5.50;;
36691;SDS011;22678;52.052;4.242;2023-04-06T09:58:27;19.83;;;7.28;;
36691;SDS011;22678;52.052;4.242;2023-04-06T10:01:03;17.93;;;7.77;;
36691;SDS011;22678;52.052;4.242;2023-04-06T10:06:35;13.53;;;7.73;;
36691;SDS011;22678;52.052;4.242;2023-04-06T10:09:02;14.37;;;6.23;;
36691;SDS011;22678;52.052;4.242;2023-04-06T10:11:30;13.50;;;6.30;;
36691;SDS011;22678;52.052;4.242;2023-04-06T10:13:56;12.23;;;6.27;;
36691;SDS011;22678;52.052;4.242;2023-04-06T10:16:22;14.23;;;7.37;;
36691;SDS011;22678;52.052;4.242;2023-04-06T10:18:49;12.83;;;7.20;;
36691;SDS011;22678;52.052;4.242;2023-04-06T10:21:20;15.37;;;8.90;;
36691;SDS011;22678;52.052;4.242;2023-04-06T10:23:49;12.70;;;6.17;;
36691;SDS011;22678;52.052;4.242;2023-04-06T10:26:19;15.10;;;7.97;;
36691;SDS011;22678;52.052;4.242;2023-04-06T10:28:46;15.80;;;8.00;;
36691;SDS011;22678;52.052;4.242;2023-04-06T10:31:13;11.83;;;7.23;;
36691;SDS011;22678;52.052;4.242;2023-04-06T10:33:38;12.93;;;7.50;;
36691;SDS011;22678;52.052;4.242;2023-04-06T10:36:20;14.50;;;8.67;;
36691;SDS011;22678;52.052;4.242;2023-04-06T10:38:47;12.47;;;6.87;;
36691;SDS011;22678;52.052;4.242;2023-04-06T10:41:12;13.07;;;7.03;;
36691;SDS011;22678;52.052;4.242;2023-04-06T10:43:40;13.83;;;7.60;;
36691;SDS011;22678;52.052;4.242;2023-04-06T10:46:06;14.60;;;6.50;;
36691;SDS011;22678;52.052;4.242;2023-04-06T10:51:14;16.90;;;7.70;;
36691;SDS011;22678;52.052;4.242;2023-04-06T10:53:41;15.87;;;8.53;;
36691;SDS011;22678;52.052;4.242;2023-04-06T10:56:12;14.27;;;7.13;;
36691;SDS011;22678;52.052;4.242;2023-04-06T10:58:38;14.50;;;9.37;;
36691;SDS011;22678;52.052;4.242;2023-04-06T11:01:11;13.82;;;8.65;;
36691;SDS011;22678;52.052;4.242;2023-04-06T11:03:43;12.77;;;8.37;;
36691;SDS011;22678;52.052;4.242;2023-04-06T11:06:23;14.47;;;7.93;;
36691;SDS011;22678;52.052;4.242;2023-04-06T11:08:50;12.90;;;8.37;;
36691;SDS011;22678;52.052;4.242;2023-04-06T11:11:16;14.83;;;8.07;;
36691;SDS011;22678;52.052;4.242;2023-04-06T11:13:46;13.57;;;7.23;;
36691;SDS011;22678;52.052;4.242;2023-04-06T11:16:18;13.73;;;7.60;;
36691;SDS011;22678;52.052;4.242;2023-04-06T11:18:53;11.20;;;6.50;;
36691;SDS011;22678;52.052;4.242;2023-04-06T11:21:33;9.87;;;5.80;;
36691;SDS011;22678;52.052;4.242;2023-04-06T11:24:12;9.23;;;5.33;;
36691;SDS011;22678;52.052;4.242;2023-04-06T11:29:08;10.53;;;5.03;;
36691;SDS011;22678;52.052;4.242;2023-04-06T11:31:39;10.10;;;5.40;;
36691;SDS011;22678;52.052;4.242;2023-04-06T11:34:21;10.37;;;6.57;;
36691;SDS011;22678;52.052;4.242;2023-04-06T11:36:49;13.00;;;7.17;;
36691;SDS011;22678;52.052;4.242;2023-04-06T11:39:26;9.53;;;6.57;;
36691;SDS011;22678;52.052;4.242;2023-04-06T11:41:54;13.03;;;7.03;;
36691;SDS011;22678;52.052;4.242;2023-04-06T11:44:31;8.57;;;4.83;;
36691;SDS011;22678;52.052;4.242;2023-04-06T11:46:58;11.63;;;5.57;;
36691;SDS011;22678;52.052;4.242;2023-04-06T11:49:27;9.27;;;6.60;;
36691;SDS011;22678;52.052;4.242;2023-04-06T11:52:01;11.90;;;6.47;;
36691;SDS011;22678;52.052;4.242;2023-04-06T11:54:36;12.07;;;5.87;;
36691;SDS011;22678;52.052;4.242;2023-04-06T11:57:03;11.57;;;5.73;;
36691;SDS011;22678;52.052;4.242;2023-04-06T11:59:29;16.63;;;6.17;;
36691;SDS011;22678;52.052;4.242;2023-04-06T12:01:55;10.90;;;4.73;;
36691;SDS011;22678;52.052;4.242;2023-04-06T12:04:21;10.57;;;4.93;;
36691;SDS011;22678;52.052;4.242;2023-04-06T12:06:47;11.27;;;5.03;;
36691;SDS011;22678;52.052;4.242;2023-04-06T12:09:13;8.27;;;4.97;;
36691;SDS011;22678;52.052;4.242;2023-04-06T12:11:38;20.03;;;10.50;;
36691;SDS011;22678;52.052;4.242;2023-04-06T12:14:04;9.73;;;5.17;;
36691;SDS011;22678;52.052;4.242;2023-04-06T12:16:30;10.67;;;5.43;;
36691;SDS011;22678;52.052;4.242;2023-04-06T12:18:56;12.47;;;5.17;;
36691;SDS011;22678;52.052;4.242;2023-04-06T12:21:21;12.60;;;5.67;;
36691;SDS011;22678;52.052;4.242;2023-04-06T12:23:47;8.63;;;3.60;;
36691;SDS011;22678;52.052;4.242;2023-04-06T12:26:12;8.10;;;4.83;;
36691;SDS011;22678;52.052;4.242;2023-04-06T12:28:37;9.40;;;4.10;;
36691;SDS011;22678;52.052;4.242;2023-04-06T12:31:03;9.30;;;3.03;;
36691;SDS011;22678;52.052;4.242;2023-04-06T12:33:28;5.93;;;3.30;;
36691;SDS011;22678;52.052;4.242;2023-04-06T12:35:53;9.70;;;4.60;;
36691;SDS011;22678;52.052;4.242;2023-04-06T12:38:19;5.43;;;3.30;;
36691;SDS011;22678;52.052;4.242;2023-04-06T12:40:45;10.47;;;5.53;;
36691;SDS011;22678;52.052;4.242;2023-04-06T12:43:10;12.27;;;6.57;;
36691;SDS011;22678;52.052;4.242;2023-04-06T12:45:37;14.37;;;6.57;;
36691;SDS011;22678;52.052;4.242;2023-04-06T12:48:03;13.40;;;7.17;;
36691;SDS011;22678;52.052;4.242;2023-04-06T12:50:28;12.77;;;6.93;;
36691;SDS011;22678;52.052;4.242;2023-04-06T12:52:54;15.60;;;6.80;;
36691;SDS011;22678;52.052;4.242;2023-04-06T12:55:19;13.03;;;7.50;;
36691;SDS011;22678;52.052;4.242;2023-04-06T12:57:45;13.67;;;6.93;;
36691;SDS011;22678;52.052;4.242;2023-04-06T13:00:11;15.77;;;8.07;;
36691;SDS011;22678;52.052;4.242;2023-04-06T13:02:37;15.10;;;7.30;;
36691;SDS011;22678;52.052;4.242;2023-04-06T13:05:02;15.03;;;6.10;;
36691;SDS011;22678;52.052;4.242;2023-04-06T13:07:27;14.00;;;8.37;;
36691;SDS011;22678;52.052;4.242;2023-04-06T13:09:53;11.27;;;5.87;;
36691;SDS011;22678;52.052;4.242;2023-04-06T13:12:18;12.80;;;6.57;;
36691;SDS011;22678;52.052;4.242;2023-04-06T13:14:44;12.33;;;6.67;;
36691;SDS011;22678;52.052;4.242;2023-04-06T13:17:12;13.63;;;6.97;;
36691;SDS011;22678;52.052;4.242;2023-04-06T13:19:37;13.53;;;7.27;;
36691;SDS011;22678;52.052;4.242;2023-04-06T13:22:02;16.10;;;7.37;;
36691;SDS011;22678;52.052;4.242;2023-04-06T13:24:28;15.87;;;7.90;;
36691;SDS011;22678;52.052;4.242;2023-04-06T13:26:53;10.87;;;6.10;;
36691;SDS011;22678;52.052;4.242;2023-04-06T13:29:18;10.30;;;7.17;;
36691;SDS011;22678;52.052;4.242;2023-04-06T13:31:43;15.40;;;7.13;;
36691;SDS011;22678;52.052;4.242;2023-04-06T13:34:09;11.17;;;6.77;;
36691;SDS011;22678;52.052;4.242;2023-04-06T13:36:35;9.20;;;4.67;;
36691;SDS011;22678;52.052;4.242;2023-04-06T13:39:00;5.93;;;3.50;;
36691;SDS011;22678;52.052;4.242;2023-04-06T13:41:25;7.73;;;4.60;;
36691;SDS011;22678;52.052;4.242;2023-04-06T13:43:54;8.73;;;4.07;;
36691;SDS011;22678;52.052;4.242;2023-04-06T13:46:19;7.83;;;3.43;;
36691;SDS011;22678;52.052;4.242;2023-04-06T13:48:45;7.73;;;4.43;;
36691;SDS011;22678;52.052;4.242;2023-04-06T13:51:12;8.60;;;3.27;;
36691;SDS011;22678;52.052;4.242;2023-04-06T13:53:38;6.47;;;3.80;;
36691;SDS011;22678;52.052;4.242;2023-04-06T13:56:04;7.83;;;3.33;;
36691;SDS011;22678;52.052;4.242;2023-04-06T13:58:30;9.87;;;3.93;;
36691;SDS011;22678;52.052;4.242;2023-04-06T14:01:01;7.43;;;3.87;;
36691;SDS011;22678;52.052;4.242;2023-04-06T14:03:31;7.17;;;3.97;;
36691;SDS011;22678;52.052;4.242;2023-04-06T14:05:57;6.40;;;3.47;;
36691;SDS011;22678;52.052;4.242;2023-04-06T14:08:22;7.40;;;3.77;;
36691;SDS011;22678;52.052;4.242;2023-04-06T14:10:47;6.57;;;3.70;;
36691;SDS011;22678;52.052;4.242;2023-04-06T14:13:13;6.30;;;3.50;;
36691;SDS011;22678;52.052;4.242;2023-04-06T14:15:38;7.10;;;4.33;;
36691;SDS011;22678;52.052;4.242;2023-04-06T14:18:03;8.63;;;3.90;;
36691;SDS011;22678;52.052;4.242;2023-04-06T14:20:31;8.17;;;4.17;;
36691;SDS011;22678;52.052;4.242;2023-04-06T14:22:56;7.03;;;4.70;;
36691;SDS011;22678;52.052;4.242;2023-04-06T14:25:21;10.97;;;5.83;;
36691;SDS011;22678;52.052;4.242;2023-04-06T14:27:47;7.17;;;4.30;;
36691;SDS011;22678;52.052;4.242;2023-04-06T14:30:12;9.33;;;5.23;;
36691;SDS011;22678;52.052;4.242;2023-04-06T14:32:38;7.20;;;4.03;;
36691;SDS011;22678;52.052;4.242;2023-04-06T14:35:06;7.00;;;4.13;;
36691;SDS011;22678;52.052;4.242;2023-04-06T14:37:32;8.53;;;4.23;;